createdAt,value
2019-01-27T00:01:15.897Z,95.80
2019-01-27T00:03:45.298Z,95.80
2019-01-27T00:06:14.462Z,95.90
2019-01-27T00:08:43.661Z,95.90
2019-01-27T00:11:12.772Z,95.90
2019-01-27T00:13:41.940Z,95.70
2019-01-27T00:16:11.904Z,95.60
2019-01-27T00:18:41.139Z,95.60
2019-01-27T00:21:10.460Z,95.70
2019-01-27T00:23:40.177Z,95.70
2019-01-27T00:26:09.375Z,95.60
2019-01-27T00:28:38.586Z,95.70
2019-01-27T00:31:07.760Z,95.80
2019-01-27T00:33:36.964Z,95.70
2019-01-27T00:36:06.128Z,95.60
2019-01-27T00:38:35.705Z,95.60
2019-01-27T00:41:04.914Z,95.40
2019-01-27T00:43:34.064Z,95.40
2019-01-27T00:46:03.241Z,95.40
2019-01-27T00:48:32.481Z,95.20
2019-01-27T00:51:01.646Z,95.20
2019-01-27T00:53:30.824Z,95.80
2019-01-27T00:56:00.255Z,96.00
2019-01-27T00:58:29.435Z,96.30
2019-01-27T01:00:58.614Z,96.50
2019-01-27T01:03:27.787Z,96.50
2019-01-27T01:05:57.011Z,96.70
2019-01-27T01:08:26.170Z,96.90
2019-01-27T01:10:55.910Z,96.80
2019-01-27T01:13:25.908Z,96.90
2019-01-27T01:15:55.277Z,96.90
2019-01-27T01:18:24.452Z,97.00
2019-01-27T01:20:53.613Z,97.10
2019-01-27T01:23:22.750Z,97.20
2019-01-27T01:25:51.942Z,97.30
2019-01-27T01:28:21.129Z,97.30
2019-01-27T01:30:50.787Z,97.10
2019-01-27T01:33:19.961Z,97.00
2019-01-27T01:35:49.141Z,97.00
2019-01-27T01:38:18.322Z,96.90
2019-01-27T01:40:48.027Z,97.00
2019-01-27T01:43:17.321Z,97.10
2019-01-27T01:45:46.523Z,97.30
2019-01-27T01:48:15.674Z,97.40
2019-01-27T01:50:44.855Z,97.70
2019-01-27T01:53:14.067Z,97.70
2019-01-27T01:55:43.234Z,97.60
2019-01-27T01:58:12.426Z,97.80
2019-01-27T02:00:41.597Z,97.90
2019-01-27T02:03:10.776Z,97.90
2019-01-27T02:05:39.871Z,98.00
2019-01-27T02:08:09.565Z,98.00
2019-01-27T02:10:38.716Z,98.00
2019-01-27T02:13:07.876Z,97.90
2019-01-27T02:16:06.266Z,98.00
2019-01-27T02:18:35.853Z,98.00
2019-01-27T02:21:05.338Z,97.90
2019-01-27T02:23:34.548Z,97.80
2019-01-27T02:26:03.742Z,97.80
2019-01-27T02:28:32.907Z,97.90
2019-01-27T02:31:02.086Z,98.00
2019-01-27T02:33:31.247Z,98.00
2019-01-27T02:36:00.442Z,98.00
2019-01-27T02:38:29.625Z,98.00
2019-01-27T02:40:58.770Z,97.90
2019-01-27T02:43:27.966Z,97.90
2019-01-27T02:45:57.805Z,97.70
2019-01-27T02:48:26.972Z,97.70
2019-01-27T02:50:56.153Z,97.70
2019-01-27T02:53:25.354Z,97.80
2019-01-27T02:55:54.530Z,97.80
2019-01-27T02:58:23.737Z,97.90
2019-01-27T03:00:52.934Z,97.80
2019-01-27T03:03:22.095Z,97.80
2019-01-27T03:06:08.865Z,97.80
2019-01-27T03:08:55.432Z,98.00
2019-01-27T03:11:25.232Z,98.00
2019-01-27T03:13:54.401Z,97.60
2019-01-27T03:16:23.578Z,97.40
2019-01-27T03:18:52.766Z,97.40
2019-01-27T03:21:21.941Z,97.30
2019-01-27T03:23:51.159Z,97.40
2019-01-27T03:26:20.343Z,97.40
2019-01-27T03:28:49.508Z,97.40
2019-01-27T03:31:18.997Z,97.30
2019-01-27T03:33:48.152Z,97.10
2019-01-27T03:36:17.341Z,96.90
2019-01-27T03:38:46.548Z,96.70
2019-01-27T03:41:15.708Z,96.60
2019-01-27T03:43:44.880Z,96.70
2019-01-27T03:46:14.113Z,96.90
2019-01-27T03:48:43.608Z,97.00
2019-01-27T03:51:12.788Z,97.10
2019-01-27T03:53:41.978Z,97.20
2019-01-27T03:56:11.109Z,97.40
2019-01-27T03:58:40.283Z,97.40
2019-01-27T04:01:09.511Z,97.40
2019-01-27T04:03:38.686Z,97.50
2019-01-27T04:06:07.850Z,97.40
2019-01-27T04:08:37.083Z,97.50
2019-01-27T04:11:06.249Z,97.40
2019-01-27T04:13:35.414Z,97.50
2019-01-27T04:16:04.532Z,97.70
2019-01-27T04:18:33.706Z,97.70
2019-01-27T04:21:02.890Z,97.60
2019-01-27T04:23:32.092Z,97.70
2019-01-27T04:26:01.276Z,97.70
2019-01-27T04:28:30.993Z,97.70
2019-01-27T04:31:00.149Z,97.70
2019-01-27T04:33:29.284Z,97.70
2019-01-27T04:35:58.503Z,97.80
2019-01-27T04:38:27.686Z,97.80
2019-01-27T04:40:56.881Z,97.80
2019-01-27T04:43:26.141Z,97.80
2019-01-27T04:45:55.305Z,97.80
2019-01-27T04:48:24.478Z,97.60
2019-01-27T04:50:53.731Z,97.90
2019-01-27T04:53:22.920Z,97.50
2019-01-27T04:55:52.031Z,97.40
2019-01-27T04:58:21.223Z,97.30
2019-01-27T05:00:50.387Z,97.30
2019-01-27T05:03:54.127Z,97.40
2019-01-27T05:06:23.306Z,97.40
2019-01-27T05:08:52.430Z,97.30
2019-01-27T05:11:21.611Z,97.40
2019-01-27T05:13:50.774Z,97.60
2019-01-27T05:16:20.249Z,97.70
2019-01-27T05:18:49.480Z,97.70
2019-01-27T05:21:18.657Z,97.70
2019-01-27T05:23:47.826Z,97.70
2019-01-27T05:26:17.260Z,97.70
2019-01-27T05:28:46.435Z,97.80
2019-01-27T05:31:16.255Z,97.70
2019-01-27T05:33:45.418Z,97.70
2019-01-27T05:36:14.622Z,97.70
2019-01-27T05:38:43.808Z,97.70
2019-01-27T05:41:12.887Z,97.60
2019-01-27T05:43:42.055Z,97.60
2019-01-27T05:46:11.251Z,97.60
2019-01-27T05:48:40.422Z,97.70
2019-01-27T05:51:09.603Z,97.60
2019-01-27T05:53:38.776Z,97.60
2019-01-27T05:56:08.490Z,97.60
2019-01-27T05:58:37.617Z,97.60
2019-01-27T06:01:06.819Z,97.70
2019-01-27T06:03:36.273Z,97.70
2019-01-27T06:06:06.223Z,97.80
2019-01-27T06:08:35.413Z,97.80
2019-01-27T06:11:04.589Z,97.80
2019-01-27T06:13:33.794Z,97.90
2019-01-27T06:16:02.884Z,98.00
2019-01-27T06:18:32.126Z,98.00
2019-01-27T06:21:01.302Z,97.90
2019-01-27T06:23:30.505Z,97.90
2019-01-27T06:25:59.684Z,97.80
2019-01-27T06:28:28.871Z,97.80
2019-01-27T06:30:58.027Z,97.90
2019-01-27T06:33:32.998Z,97.90
2019-01-27T06:36:02.189Z,97.90
2019-01-27T06:38:31.371Z,97.90
2019-01-27T06:41:01.633Z,97.80
2019-01-27T06:43:31.578Z,97.60
2019-01-27T06:46:00.739Z,97.50
2019-01-27T06:48:29.968Z,97.60
2019-01-27T06:50:59.152Z,97.60
2019-01-27T06:53:28.320Z,97.70
2019-01-27T06:55:57.583Z,97.70
2019-01-27T06:58:45.860Z,97.70
2019-01-27T07:01:43.100Z,97.60
2019-01-27T07:04:34.048Z,97.50
2019-01-27T07:07:31.533Z,97.40
2019-01-27T07:10:19.693Z,97.40
2019-01-27T07:13:05.220Z,97.40
2019-01-27T07:15:53.651Z,97.40
2019-01-27T07:18:40.861Z,97.40
2019-01-27T07:21:29.045Z,97.40
2019-01-27T07:24:19.448Z,97.30
2019-01-27T07:27:05.572Z,97.20
2019-01-27T07:29:48.245Z,97.20
2019-01-27T07:32:34.675Z,97.20
2019-01-27T07:35:21.735Z,97.20
2019-01-27T07:37:59.892Z,97.10
2019-01-27T07:40:36.087Z,96.90
2019-01-27T07:43:24.249Z,96.90
2019-01-27T07:46:07.737Z,96.70
2019-01-27T07:48:58.923Z,96.70
2019-01-27T07:51:45.769Z,96.70
2019-01-27T07:54:40.184Z,96.70
2019-01-27T07:57:34.683Z,96.70
2019-01-27T08:00:09.663Z,96.70
2019-01-27T08:02:53.584Z,96.60
2019-01-27T08:05:44.512Z,96.60
2019-01-27T08:08:48.576Z,96.50
2019-01-27T08:11:42.540Z,96.20
2019-01-27T08:14:26.172Z,96.10
2019-01-27T08:17:04.207Z,96.00
2019-01-27T08:19:43.268Z,96.00
2019-01-27T08:22:22.084Z,95.90
2019-01-27T08:25:09.006Z,95.90
2019-01-27T08:27:57.274Z,96.00
2019-01-27T08:30:42.168Z,95.80
2019-01-27T08:33:36.534Z,95.60
2019-01-27T08:36:23.861Z,95.70
2019-01-27T08:39:12.028Z,95.60
2019-01-27T08:42:12.626Z,95.50
2019-01-27T08:44:56.684Z,95.50
2019-01-27T08:47:25.926Z,95.40
2019-01-27T08:49:55.156Z,95.30
2019-01-27T08:52:24.892Z,95.20
2019-01-27T08:54:54.371Z,95.00
2019-01-27T08:57:25.449Z,94.80
2019-01-27T08:59:54.683Z,94.90
2019-01-27T09:02:46.423Z,95.10
2019-01-27T09:05:32.054Z,94.90
2019-01-27T09:08:21.970Z,95.00
2019-01-27T09:11:01.490Z,95.00
2019-01-27T09:13:49.451Z,94.70
2019-01-27T09:16:40.495Z,94.60
2019-01-27T09:19:20.601Z,94.60
2019-01-27T09:22:07.674Z,94.50
2019-01-27T09:24:55.945Z,94.60
2019-01-27T09:27:30.719Z,94.30
2019-01-27T09:30:14.680Z,94.30
2019-01-27T09:32:54.869Z,94.10
2019-01-27T09:35:43.016Z,94.30
2019-01-27T09:38:33.112Z,94.30
2019-01-27T09:41:20.040Z,94.00
2019-01-27T09:44:08.240Z,94.10
2019-01-27T09:46:54.952Z,94.10
2019-01-27T09:49:49.441Z,93.90
2019-01-27T09:52:36.449Z,94.10
2019-01-27T09:55:29.929Z,94.20
2019-01-27T09:58:21.445Z,94.10
2019-01-27T10:01:10.022Z,94.10
2019-01-27T10:04:03.257Z,94.20
2019-01-27T10:06:40.343Z,93.80
2019-01-27T10:09:33.566Z,93.70
2019-01-27T10:12:19.159Z,93.90
2019-01-27T10:15:07.724Z,93.90
2019-01-27T10:18:11.201Z,93.80
2019-01-27T10:20:56.462Z,93.90
2019-01-27T10:23:34.350Z,93.70
2019-01-27T10:26:26.083Z,93.50
2019-01-27T10:29:13.677Z,93.50
2019-01-27T10:32:00.456Z,93.20
2019-01-27T10:34:47.109Z,93.30
2019-01-27T10:37:41.688Z,93.40
2019-01-27T10:40:39.939Z,93.20
2019-01-27T10:43:32.251Z,93.30
2019-01-27T10:46:22.681Z,93.40
2019-01-27T10:49:09.514Z,93.20
2019-01-27T10:51:59.665Z,93.00
2019-01-27T10:54:53.125Z,93.10
2019-01-27T10:57:40.309Z,92.80
2019-01-27T11:00:23.541Z,93.20
2019-01-27T11:03:03.681Z,93.00
2019-01-27T11:05:47.080Z,93.20
2019-01-27T11:08:35.317Z,93.20
2019-01-27T11:11:32.727Z,93.40
2019-01-27T11:14:30.226Z,93.30
2019-01-27T11:17:27.278Z,93.20
2019-01-27T11:20:12.749Z,93.30
2019-01-27T11:23:01.606Z,93.20
2019-01-27T11:26:00.001Z,93.00
2019-01-27T11:28:43.177Z,93.00
2019-01-27T11:31:30.694Z,92.90
2019-01-27T11:34:16.993Z,92.80
2019-01-27T11:37:05.563Z,92.40
2019-01-27T11:39:45.413Z,92.30
2019-01-27T11:42:45.504Z,92.30
2019-01-27T11:45:40.061Z,92.30
2019-01-27T11:48:17.540Z,92.00
2019-01-27T11:50:53.842Z,92.00
2019-01-27T11:53:24.137Z,92.20
2019-01-27T11:55:53.327Z,92.20
2019-01-27T11:58:22.566Z,92.10
2019-01-27T12:00:56.942Z,92.10
2019-01-27T12:03:26.150Z,91.90
2019-01-27T12:05:55.797Z,92.20
2019-01-27T12:08:28.089Z,92.20
2019-01-27T12:10:57.411Z,91.60
2019-01-27T12:13:26.667Z,91.60
2019-01-27T12:15:56.016Z,91.90
2019-01-27T12:18:25.664Z,91.60
2019-01-27T12:20:55.109Z,91.50
2019-01-27T12:23:24.437Z,91.50
2019-01-27T12:25:53.756Z,91.50
2019-01-27T12:28:23.132Z,91.50
2019-01-27T12:30:52.431Z,91.50
2019-01-27T12:33:23.966Z,91.30
2019-01-27T12:35:53.302Z,91.30
2019-01-27T12:38:22.656Z,91.30
2019-01-27T12:40:51.960Z,91.20
2019-01-27T12:43:21.176Z,91.30
2019-01-27T12:45:50.428Z,91.20
2019-01-27T12:48:19.658Z,91.10
2019-01-27T12:50:48.951Z,91.10
2019-01-27T12:53:18.206Z,91.00
2019-01-27T12:55:48.486Z,90.90
2019-01-27T12:58:17.912Z,91.20
2019-01-27T13:00:56.243Z,91.10
2019-01-27T13:03:25.461Z,91.00
2019-01-27T13:05:54.663Z,91.20
2019-01-27T13:08:24.204Z,91.20
2019-01-27T13:10:53.460Z,91.10
2019-01-27T13:13:24.178Z,91.20
2019-01-27T13:15:53.432Z,91.10
2019-01-27T13:18:22.646Z,90.90
2019-01-27T13:20:51.834Z,91.10
2019-01-27T13:23:21.063Z,91.00
2019-01-27T13:25:50.297Z,91.20
2019-01-27T13:28:19.514Z,91.00
2019-01-27T13:30:48.765Z,91.10
2019-01-27T13:33:17.961Z,91.10
2019-01-27T13:35:47.198Z,91.00
2019-01-27T13:38:17.068Z,91.00
2019-01-27T13:40:46.287Z,91.20
2019-01-27T13:43:15.547Z,91.00
2019-01-27T13:45:44.808Z,91.00
2019-01-27T13:48:14.058Z,90.90
2019-01-27T13:50:43.825Z,91.40
2019-01-27T13:53:13.081Z,91.00
2019-01-27T13:55:42.516Z,91.10
2019-01-27T13:58:11.736Z,91.10
2019-01-27T14:00:41.114Z,91.10
2019-01-27T14:03:10.974Z,91.00
2019-01-27T14:05:40.323Z,91.10
2019-01-27T14:08:09.666Z,91.20
2019-01-27T14:10:39.233Z,91.30
2019-01-27T14:13:08.610Z,91.10
2019-01-27T14:15:40.933Z,91.20
2019-01-27T14:18:10.719Z,91.30
2019-01-27T14:20:40.031Z,91.10
2019-01-27T14:23:09.401Z,91.30
2019-01-27T14:25:38.733Z,91.30
2019-01-27T14:28:08.090Z,91.30
2019-01-27T14:30:40.248Z,91.30
2019-01-27T14:33:09.606Z,91.30
2019-01-27T14:35:39.070Z,91.30
2019-01-27T14:38:08.738Z,91.20
2019-01-27T14:40:38.045Z,91.20
2019-01-27T14:43:07.432Z,91.30
2019-01-27T14:45:38.755Z,91.30
2019-01-27T14:48:09.137Z,91.30
2019-01-27T14:50:41.859Z,91.30
2019-01-27T14:53:13.546Z,91.30
2019-01-27T14:55:42.829Z,91.40
2019-01-27T14:58:13.173Z,91.40
2019-01-27T15:00:43.918Z,91.40
2019-01-27T15:03:14.360Z,91.50
2019-01-27T15:05:43.971Z,91.50
2019-01-27T15:08:13.205Z,91.40
2019-01-27T15:10:43.695Z,91.40
2019-01-27T15:13:12.981Z,91.30
2019-01-27T15:15:42.264Z,91.30
2019-01-27T15:18:11.484Z,91.40
2019-01-27T15:20:50.125Z,91.30
2019-01-27T15:23:19.509Z,91.30
2019-01-27T15:25:48.760Z,91.40
2019-01-27T15:28:17.952Z,91.30
2019-01-27T15:30:47.215Z,91.20
2019-01-27T15:33:16.387Z,91.10
2019-01-27T15:35:45.603Z,91.10
2019-01-27T15:38:14.811Z,91.00
2019-01-27T15:40:44.317Z,90.90
2019-01-27T15:43:13.532Z,90.80
2019-01-27T15:45:42.737Z,90.90
2019-01-27T15:48:12.481Z,90.80
2019-01-27T15:50:41.705Z,90.80
2019-01-27T15:53:10.887Z,90.80
2019-01-27T15:55:40.091Z,90.80
2019-01-27T15:58:09.310Z,90.70
2019-01-27T16:00:38.639Z,90.70
2019-01-27T16:03:07.845Z,90.80
2019-01-27T16:05:37.085Z,90.90
2019-01-27T16:08:07.901Z,90.70
2019-01-27T16:10:37.099Z,90.80
2019-01-27T16:13:06.414Z,90.80
2019-01-27T16:15:35.739Z,90.80
2019-01-27T16:18:07.443Z,90.90
2019-01-27T16:20:36.616Z,90.90
2019-01-27T16:23:23.236Z,90.90
2019-01-27T16:25:54.488Z,91.10
2019-01-27T16:28:23.766Z,91.10
2019-01-27T16:31:09.319Z,91.00
2019-01-27T16:33:44.097Z,91.00
2019-01-27T16:36:13.329Z,90.90
2019-01-27T16:38:45.525Z,90.90
2019-01-27T16:41:14.846Z,91.20
2019-01-27T16:43:46.578Z,90.90
2019-01-27T16:46:22.321Z,90.90
2019-01-27T16:48:51.604Z,90.90
2019-01-27T16:51:21.247Z,90.90
2019-01-27T16:53:50.433Z,90.80
2019-01-27T16:56:19.751Z,90.90
2019-01-27T16:58:51.385Z,90.90
2019-01-27T17:01:21.105Z,90.90
2019-01-27T17:03:51.004Z,90.90
2019-01-27T17:06:20.268Z,90.90
2019-01-27T17:08:49.710Z,90.80
2019-01-27T17:11:18.941Z,91.00
2019-01-27T17:13:48.518Z,91.00
2019-01-27T17:16:17.775Z,91.00
2019-01-27T17:18:50.625Z,91.00
2019-01-27T17:21:19.921Z,91.00
2019-01-27T17:23:49.504Z,91.00
2019-01-27T17:26:18.739Z,91.00
2019-01-27T17:28:48.322Z,91.00
2019-01-27T17:31:17.562Z,91.00
2019-01-27T17:33:46.825Z,91.00
2019-01-27T17:36:16.471Z,90.90
2019-01-27T17:38:45.687Z,91.00
2019-01-27T17:41:14.871Z,90.90
2019-01-27T17:43:44.074Z,90.90
2019-01-27T17:46:13.510Z,90.90
2019-01-27T17:48:48.194Z,90.90
2019-01-27T17:51:17.436Z,91.00
2019-01-27T17:53:51.385Z,91.00
2019-01-27T17:56:20.815Z,91.10
2019-01-27T17:59:18.041Z,91.20
2019-01-27T18:02:21.316Z,91.20
2019-01-27T18:05:14.316Z,91.20
2019-01-27T18:08:02.515Z,91.30
2019-01-27T18:10:37.431Z,91.30
2019-01-27T18:13:31.464Z,91.30
2019-01-27T18:16:02.311Z,91.30
2019-01-27T18:18:31.555Z,91.30
2019-01-27T18:21:00.830Z,91.40
2019-01-27T18:23:30.118Z,91.40
2019-01-27T18:25:59.399Z,91.50
2019-01-27T18:28:28.653Z,91.50
2019-01-27T18:30:59.964Z,91.50
2019-01-27T18:33:29.241Z,91.40
2019-01-27T18:35:58.457Z,91.50
2019-01-27T18:38:27.671Z,91.40
2019-01-27T18:40:57.301Z,91.40
2019-01-27T18:43:26.957Z,91.50
2019-01-27T18:45:56.158Z,91.50
2019-01-27T18:48:25.423Z,91.60
2019-01-27T18:50:54.634Z,91.60
2019-01-27T18:53:53.396Z,91.60
2019-01-27T18:56:43.620Z,91.70
2019-01-27T18:59:44.023Z,91.80
2019-01-27T19:02:35.580Z,91.70
2019-01-27T19:05:31.555Z,91.80
2019-01-27T19:08:20.698Z,91.80
2019-01-27T19:11:17.906Z,91.80
2019-01-27T19:14:12.985Z,91.80
2019-01-27T19:16:55.492Z,91.90
2019-01-27T19:19:42.958Z,91.90
2019-01-27T19:22:43.745Z,91.80
2019-01-27T19:25:24.482Z,91.90
2019-01-27T19:28:05.698Z,91.90
2019-01-27T19:30:46.410Z,92.00
2019-01-27T19:33:39.644Z,92.00
2019-01-27T19:36:16.041Z,92.00
2019-01-27T19:39:03.187Z,92.00
2019-01-27T19:41:48.700Z,92.10
2019-01-27T19:44:34.980Z,92.10
2019-01-27T19:47:19.005Z,92.10
2019-01-27T19:50:20.115Z,92.00
2019-01-27T19:53:00.896Z,92.00
2019-01-27T19:55:41.397Z,92.00
2019-01-27T19:58:32.420Z,92.00
2019-01-27T20:01:08.892Z,92.00
2019-01-27T20:04:03.137Z,92.10
2019-01-27T20:06:57.979Z,92.10
2019-01-27T20:09:58.350Z,92.10
2019-01-27T20:12:52.182Z,92.20
2019-01-27T20:15:40.146Z,92.20
2019-01-27T20:18:32.422Z,92.20
2019-01-27T20:21:20.026Z,92.30
2019-01-27T20:24:07.578Z,92.40
2019-01-27T20:27:11.239Z,92.40
2019-01-27T20:29:57.843Z,92.50
2019-01-27T20:33:04.448Z,92.50
2019-01-27T20:35:51.598Z,92.40
2019-01-27T20:38:48.978Z,92.50
2019-01-27T20:41:37.457Z,92.80
2019-01-27T20:44:34.833Z,92.50
2019-01-27T20:47:29.350Z,92.50
2019-01-27T20:50:29.667Z,92.40
2019-01-27T20:53:09.369Z,92.40
2019-01-27T20:56:09.744Z,92.50
2019-01-27T20:58:53.529Z,92.50
2019-01-27T21:01:41.786Z,92.60
2019-01-27T21:04:28.944Z,92.60
2019-01-27T21:07:04.435Z,92.60
2019-01-27T21:09:52.111Z,92.60
2019-01-27T21:12:31.600Z,92.60
2019-01-27T21:15:10.572Z,92.70
2019-01-27T21:18:04.883Z,92.70
2019-01-27T21:20:34.151Z,92.60
2019-01-27T21:23:03.376Z,92.60
2019-01-27T21:25:33.121Z,92.60
2019-01-27T21:28:02.412Z,92.70
2019-01-27T21:30:32.311Z,92.70
2019-01-27T21:33:01.591Z,92.70
2019-01-27T21:35:30.968Z,92.70
2019-01-27T21:38:00.765Z,92.80
2019-01-27T21:40:30.023Z,92.90
2019-01-27T21:42:59.836Z,93.30
2019-01-27T21:45:30.081Z,93.00
2019-01-27T21:47:59.787Z,93.00
2019-01-27T21:50:29.032Z,93.00
2019-01-27T21:52:58.713Z,92.80
2019-01-27T21:55:27.946Z,92.90
2019-01-27T21:57:57.173Z,93.00
2019-01-27T22:00:26.401Z,93.10
2019-01-27T22:02:55.662Z,93.10
2019-01-27T22:05:24.863Z,93.10
2019-01-27T22:07:54.155Z,93.10
2019-01-27T22:10:23.347Z,93.20
2019-01-27T22:12:52.554Z,93.20
2019-01-27T22:15:21.769Z,93.30
2019-01-27T22:17:50.982Z,93.30
2019-01-27T22:20:20.207Z,93.20
2019-01-27T22:22:49.841Z,93.20
2019-01-27T22:25:19.061Z,93.10
2019-01-27T22:27:48.288Z,93.10
2019-01-27T22:30:19.463Z,93.10
2019-01-27T22:32:48.673Z,93.10
2019-01-27T22:35:18.348Z,93.10
2019-01-27T22:37:47.791Z,93.20
2019-01-27T22:40:17.097Z,93.30
2019-01-27T22:42:46.282Z,93.30
2019-01-27T22:45:16.116Z,93.30
2019-01-27T22:47:45.356Z,93.40
2019-01-27T22:50:16.596Z,93.40
2019-01-27T22:52:45.806Z,93.40
2019-01-27T22:55:15.043Z,93.30
2019-01-27T22:57:44.258Z,93.30
2019-01-27T23:01:00.186Z,93.30
2019-01-27T23:03:35.002Z,93.30
2019-01-27T23:06:04.228Z,93.30
2019-01-27T23:08:33.440Z,93.30
2019-01-27T23:11:02.624Z,93.20
2019-01-27T23:13:31.837Z,93.30
2019-01-27T23:16:01.001Z,93.30
2019-01-27T23:18:30.242Z,93.30
2019-01-27T23:20:59.464Z,93.20
2019-01-27T23:23:28.648Z,93.20
2019-01-27T23:25:57.828Z,93.30
2019-01-27T23:28:26.951Z,93.20
2019-01-27T23:30:56.137Z,93.20
2019-01-27T23:33:25.335Z,93.10
2019-01-27T23:35:54.534Z,93.00
2019-01-27T23:38:23.691Z,93.10
2019-01-27T23:40:52.881Z,93.00
2019-01-27T23:43:22.048Z,93.00
2019-01-27T23:45:51.301Z,93.10
2019-01-27T23:48:22.096Z,93.10
2019-01-27T23:50:51.345Z,93.10
2019-01-27T23:53:20.530Z,93.10
2019-01-27T23:55:49.732Z,92.90
2019-01-27T23:58:18.928Z,92.90
